createdAt,value
2019-05-18T00:01:37.183Z,16.10
2019-05-18T00:06:42.487Z,14.30
2019-05-18T00:16:59.107Z,11.50
2019-05-18T00:22:04.463Z,9.93
2019-05-18T00:27:09.717Z,9.97
2019-05-18T00:32:15.043Z,10.67
2019-05-18T00:37:20.291Z,10.07
2019-05-18T00:42:25.571Z,8.90
2019-05-18T00:47:40.888Z,9.30
2019-05-18T00:52:37.788Z,9.13
2019-05-18T00:57:43.056Z,8.73
2019-05-18T01:02:48.319Z,8.70
2019-05-18T01:07:53.603Z,8.67
2019-05-18T01:12:58.905Z,8.50
2019-05-18T01:18:04.351Z,7.67
2019-05-18T01:23:09.655Z,8.37
2019-05-18T01:28:14.930Z,7.27
2019-05-18T01:33:20.048Z,7.23
2019-05-18T01:38:25.280Z,8.43
2019-05-18T01:43:30.511Z,7.93
2019-05-18T01:48:35.726Z,8.37
2019-05-18T01:53:40.923Z,8.73
2019-05-18T01:58:46.262Z,10.27
2019-05-18T02:03:51.690Z,9.23
2019-05-18T02:08:56.925Z,10.23
2019-05-18T02:14:02.366Z,9.10
2019-05-18T02:19:07.591Z,10.07
2019-05-18T02:24:12.838Z,9.07
2019-05-18T02:29:18.138Z,9.97
2019-05-18T02:34:23.350Z,9.70
2019-05-18T02:39:28.591Z,9.50
2019-05-18T02:44:33.939Z,8.93
2019-05-18T02:49:39.283Z,8.20
2019-05-18T02:54:44.607Z,8.73
2019-05-18T02:59:49.826Z,8.70
2019-05-18T03:04:55.163Z,7.27
2019-05-18T03:10:00.240Z,7.63
2019-05-18T03:15:05.730Z,7.33
2019-05-18T03:20:11.401Z,7.60
2019-05-18T03:25:16.771Z,8.30
2019-05-18T03:30:22.089Z,7.90
2019-05-18T03:35:27.372Z,8.00
2019-05-18T03:40:32.598Z,8.57
2019-05-18T03:45:37.823Z,8.70
2019-05-18T03:50:43.682Z,9.83
2019-05-18T03:55:48.905Z,12.17
2019-05-18T04:00:54.184Z,13.17
2019-05-18T04:05:59.501Z,14.53
2019-05-18T04:11:04.915Z,16.40
2019-05-18T04:16:10.224Z,17.80
2019-05-18T04:21:15.596Z,17.87
2019-05-18T04:26:20.779Z,18.30
2019-05-18T04:31:26.005Z,18.20
2019-05-18T04:36:31.268Z,18.43
2019-05-18T04:41:36.612Z,18.93
2019-05-18T04:46:41.927Z,19.17
2019-05-18T04:51:47.060Z,16.93
2019-05-18T04:56:52.304Z,17.87
2019-05-18T05:01:57.644Z,20.17
2019-05-18T05:07:02.775Z,20.97
2019-05-18T05:12:08.107Z,20.07
2019-05-18T05:17:13.312Z,22.17
2019-05-18T05:22:18.719Z,21.87
2019-05-18T05:27:23.999Z,22.10
2019-05-18T05:32:29.322Z,21.97
2019-05-18T05:37:34.655Z,22.57
2019-05-18T05:42:39.955Z,20.93
2019-05-18T05:47:45.165Z,22.67
2019-05-18T05:52:50.364Z,22.07
2019-05-18T05:57:55.573Z,23.93
2019-05-18T06:03:00.798Z,23.60
2019-05-18T06:08:06.290Z,25.63
2019-05-18T06:13:11.631Z,25.33
2019-05-18T06:18:16.898Z,27.83
2019-05-18T06:23:22.217Z,24.27
2019-05-18T06:28:27.642Z,27.90
2019-05-18T06:33:32.805Z,23.60
2019-05-18T06:38:38.294Z,24.77
2019-05-18T06:43:43.635Z,32.00
2019-05-18T06:48:48.927Z,25.77
2019-05-18T06:53:54.406Z,27.10
2019-05-18T06:59:00.920Z,28.10
2019-05-18T07:04:06.292Z,25.40
2019-05-18T07:09:14.078Z,25.33
2019-05-18T07:14:25.729Z,24.73
2019-05-18T07:19:25.734Z,24.60
2019-05-18T07:24:31.105Z,24.17
2019-05-18T07:29:36.432Z,22.63
2019-05-18T07:34:41.670Z,23.63
2019-05-18T07:39:46.978Z,23.47
2019-05-18T07:48:57.148Z,23.23
2019-05-18T07:54:01.723Z,23.83
2019-05-18T07:59:06.783Z,21.40
2019-05-18T08:04:11.628Z,22.60
2019-05-18T08:09:16.399Z,23.00
2019-05-18T08:14:21.387Z,20.70
2019-05-18T08:19:26.391Z,21.23
2019-05-18T08:24:31.647Z,22.77
2019-05-18T08:29:36.952Z,21.07
2019-05-18T08:34:41.628Z,19.33
2019-05-18T08:39:46.295Z,20.30
2019-05-18T08:44:51.106Z,21.13
2019-05-18T08:49:55.788Z,20.97
2019-05-18T08:55:00.599Z,21.07
2019-05-18T09:00:05.834Z,21.93
2019-05-18T09:05:11.690Z,21.73
2019-05-18T09:10:16.666Z,21.67
2019-05-18T09:15:22.599Z,19.83
2019-05-18T09:20:27.827Z,20.97
2019-05-18T09:25:32.719Z,18.50
2019-05-18T09:30:37.790Z,18.07
2019-05-18T09:35:42.584Z,18.67
2019-05-18T09:40:47.155Z,18.47
2019-05-18T09:45:51.932Z,19.53
2019-05-18T09:50:56.735Z,18.77
2019-05-18T09:56:01.501Z,16.40
2019-05-18T10:01:06.327Z,17.33
2019-05-18T10:06:11.461Z,18.47
2019-05-18T10:11:16.293Z,17.23
2019-05-18T10:16:20.902Z,17.73
2019-05-18T10:21:25.738Z,17.07
2019-05-18T10:26:30.498Z,17.03
2019-05-18T10:31:35.267Z,18.13
2019-05-18T10:36:40.239Z,16.23
2019-05-18T10:41:44.983Z,15.97
2019-05-18T10:46:50.162Z,16.03
2019-05-18T10:51:55.383Z,15.47
2019-05-18T10:57:00.054Z,15.70
2019-05-18T11:02:05.715Z,16.30
2019-05-18T11:07:10.340Z,14.50
2019-05-18T11:12:16.290Z,15.10
2019-05-18T11:17:21.205Z,13.87
2019-05-18T11:22:26.471Z,13.47
2019-05-18T11:27:31.541Z,13.67
2019-05-18T11:32:37.166Z,13.17
2019-05-18T11:37:42.170Z,11.57
2019-05-18T11:42:47.366Z,12.80
2019-05-18T11:47:52.674Z,13.27
2019-05-18T11:52:57.885Z,11.57
2019-05-18T11:58:02.659Z,12.10
2019-05-18T12:03:07.239Z,10.63
2019-05-18T12:08:11.901Z,12.07
2019-05-18T12:13:17.093Z,10.87
2019-05-18T12:18:21.951Z,10.20
2019-05-18T12:23:26.754Z,9.87
2019-05-18T12:28:31.639Z,13.30
2019-05-18T12:33:37.012Z,11.17
2019-05-18T12:38:41.715Z,11.07
2019-05-18T12:43:46.991Z,10.60
2019-05-18T12:48:51.750Z,11.60
2019-05-18T12:53:56.504Z,9.70
2019-05-18T12:59:01.255Z,10.20
2019-05-18T13:04:06.086Z,10.57
2019-05-18T13:09:11.483Z,10.53
2019-05-18T13:14:16.602Z,10.60
2019-05-18T13:19:21.488Z,9.77
2019-05-18T13:24:26.289Z,9.23
2019-05-18T13:29:31.092Z,7.87
2019-05-18T13:34:36.243Z,7.87
2019-05-18T13:39:40.894Z,6.90
2019-05-18T13:44:45.545Z,7.17
2019-05-18T13:49:50.380Z,7.00
2019-05-18T13:55:03.611Z,8.03
2019-05-18T14:00:02.044Z,9.40
2019-05-18T14:05:07.194Z,8.77
2019-05-18T14:10:12.722Z,9.83
2019-05-18T14:15:17.872Z,8.80
2019-05-18T14:20:26.064Z,9.33
2019-05-18T14:25:29.439Z,8.53
2019-05-18T14:30:34.195Z,9.60
2019-05-18T14:35:39.039Z,9.13
2019-05-18T14:40:43.989Z,8.77
2019-05-18T14:45:49.536Z,9.73
2019-05-18T14:50:55.114Z,10.27
2019-05-18T14:56:00.032Z,10.93
2019-05-18T15:01:04.691Z,9.27
2019-05-18T15:06:09.461Z,8.83
2019-05-18T15:11:14.211Z,10.00
2019-05-18T15:16:18.990Z,9.47
2019-05-18T15:21:24.344Z,9.20
2019-05-18T15:26:29.046Z,8.20
2019-05-18T15:31:33.765Z,8.87
2019-05-18T15:36:38.548Z,9.90
2019-05-18T15:41:43.413Z,9.23
2019-05-18T15:46:48.196Z,8.57
2019-05-18T15:51:53.495Z,7.30
2019-05-18T15:56:58.137Z,7.60
2019-05-18T16:02:06.481Z,7.03
2019-05-18T16:07:09.459Z,7.67
2019-05-18T16:12:14.332Z,7.20
2019-05-18T16:17:19.068Z,7.17
2019-05-18T16:22:24.344Z,7.53
2019-05-18T16:27:29.915Z,8.67
2019-05-18T16:32:35.046Z,7.07
2019-05-18T16:37:40.367Z,7.83
2019-05-18T16:42:46.664Z,6.90
2019-05-18T16:47:51.494Z,6.77
2019-05-18T16:52:56.416Z,6.87
2019-05-18T16:58:01.051Z,7.57
2019-05-18T17:03:05.681Z,5.87
2019-05-18T17:08:10.507Z,6.57
2019-05-18T17:13:15.638Z,6.33
2019-05-18T17:18:20.273Z,6.87
2019-05-18T17:23:25.214Z,6.73
2019-05-18T17:28:30.209Z,8.03
2019-05-18T17:33:34.957Z,7.07
2019-05-18T17:38:39.641Z,7.30
2019-05-18T17:43:44.656Z,7.43
2019-05-18T17:54:00.046Z,6.90
2019-05-18T17:59:04.665Z,8.47
2019-05-18T18:04:09.264Z,7.27
2019-05-18T18:09:13.987Z,6.67
2019-05-18T18:14:18.832Z,7.17
2019-05-18T18:24:28.259Z,5.77
2019-05-18T18:29:32.944Z,7.67
2019-05-18T18:34:37.580Z,7.13
2019-05-18T18:39:42.305Z,7.43
2019-05-18T18:44:47.186Z,7.63
2019-05-18T18:49:51.796Z,6.77
2019-05-18T19:05:57.918Z,8.13
2019-05-18T19:16:13.756Z,8.90
2019-05-18T19:21:18.561Z,8.53
2019-05-18T19:26:23.591Z,9.10
2019-05-18T19:31:28.470Z,9.93
2019-05-18T19:36:33.190Z,9.20
2019-05-18T19:41:37.870Z,10.40
2019-05-18T19:46:42.669Z,10.23
2019-05-18T19:51:47.289Z,11.03
2019-05-18T19:56:52.212Z,12.03
2019-05-18T20:01:57.090Z,12.53
2019-05-18T20:07:01.840Z,10.23
2019-05-18T20:12:06.609Z,11.03
2019-05-18T20:17:11.382Z,11.30
2019-05-18T20:22:16.030Z,12.50
2019-05-18T20:27:20.927Z,12.10
2019-05-18T20:32:25.926Z,12.60
2019-05-18T20:37:30.859Z,13.53
2019-05-18T20:42:37.686Z,17.47
2019-05-18T20:47:42.012Z,17.77
2019-05-18T20:52:46.849Z,16.23
2019-05-18T20:57:51.530Z,15.10
2019-05-18T21:02:56.370Z,13.23
2019-05-18T21:08:01.169Z,14.30
2019-05-18T21:13:05.873Z,13.53
2019-05-18T21:18:10.650Z,14.10
2019-05-18T21:23:15.587Z,14.30
2019-05-18T21:28:20.431Z,14.73
2019-05-18T21:33:25.146Z,16.07
2019-05-18T21:38:29.798Z,15.53
2019-05-18T21:43:34.721Z,16.57
2019-05-18T21:48:39.409Z,17.13
2019-05-18T21:53:44.169Z,19.20
2019-05-18T21:58:48.965Z,19.43
2019-05-18T22:03:53.669Z,19.67
2019-05-18T22:08:58.513Z,18.73
2019-05-18T22:14:03.556Z,17.97
2019-05-18T22:19:08.358Z,17.00
2019-05-18T22:24:13.449Z,20.70
2019-05-18T22:29:18.099Z,21.33
2019-05-18T22:34:22.912Z,25.37
2019-05-18T22:39:27.642Z,25.60
2019-05-18T22:44:33.429Z,27.90
2019-05-18T22:49:38.170Z,26.97
2019-05-18T22:54:42.834Z,27.43
2019-05-18T22:59:47.981Z,27.93
2019-05-18T23:04:52.729Z,25.90
2019-05-18T23:09:57.543Z,26.37
2019-05-18T23:15:02.229Z,26.47
2019-05-18T23:20:07.542Z,26.03
2019-05-18T23:25:12.548Z,26.20
2019-05-18T23:30:17.394Z,23.30
2019-05-18T23:35:22.366Z,23.17
2019-05-18T23:40:27.150Z,24.50
2019-05-18T23:45:31.863Z,24.53
2019-05-18T23:50:36.570Z,23.27
2019-05-18T23:55:41.305Z,20.97
